createdAt,value
2023-07-25T00:00:17.365Z,29.44
2023-07-25T00:05:20.471Z,29.40
2023-07-25T00:10:23.223Z,29.36
2023-07-25T00:15:27.871Z,29.31
2023-07-25T00:20:30.709Z,29.28
2023-07-25T00:25:33.600Z,29.22
2023-07-25T00:30:37.841Z,29.19
2023-07-25T00:35:40.655Z,29.17
2023-07-25T00:40:43.402Z,29.13
2023-07-25T00:45:47.735Z,29.07
2023-07-25T00:50:50.888Z,29.02
2023-07-25T00:55:53.892Z,28.97
2023-07-25T01:01:07.723Z,28.93
2023-07-25T01:06:14.762Z,28.89
2023-07-25T01:11:17.635Z,28.86
2023-07-25T01:16:24.578Z,28.82
2023-07-25T01:21:27.614Z,28.78
2023-07-25T01:26:31.803Z,28.75
2023-07-25T01:31:34.863Z,28.70
2023-07-25T01:36:37.646Z,28.68
2023-07-25T01:41:42.967Z,28.64
2023-07-25T01:46:45.849Z,28.62
2023-07-25T01:51:48.875Z,28.60
2023-07-25T01:56:53.108Z,28.55
2023-07-25T02:01:55.979Z,28.53
2023-07-25T02:06:58.823Z,28.50
2023-07-25T02:12:03.408Z,28.46
2023-07-25T02:17:07.478Z,28.44
2023-07-25T02:22:10.345Z,28.42
2023-07-25T02:27:14.503Z,28.39
2023-07-25T02:32:17.345Z,28.34
2023-07-25T02:37:20.194Z,28.33
2023-07-25T02:42:24.363Z,28.32
2023-07-25T02:47:27.556Z,28.31
2023-07-25T02:52:30.423Z,28.32
2023-07-25T02:57:34.850Z,28.29
2023-07-25T03:02:37.803Z,28.28
2023-07-25T03:07:40.702Z,28.27
2023-07-25T03:12:45.088Z,28.24
2023-07-25T03:17:48.231Z,28.23
2023-07-25T03:22:51.110Z,28.26
2023-07-25T03:27:55.328Z,28.21
2023-07-25T03:32:58.116Z,28.15
2023-07-25T03:38:00.959Z,27.65
2023-07-25T03:43:05.275Z,26.18
2023-07-25T03:48:08.163Z,26.07
2023-07-25T03:53:11.024Z,26.03
2023-07-25T03:58:15.207Z,25.96
2023-07-25T04:03:18.082Z,25.88
2023-07-25T04:08:20.933Z,26.01
2023-07-25T04:13:25.161Z,26.24
2023-07-25T04:18:28.103Z,26.30
2023-07-25T04:23:30.912Z,26.25
2023-07-25T04:28:35.307Z,26.27
2023-07-25T04:33:38.109Z,26.16
2023-07-25T04:38:41.515Z,26.16
2023-07-25T04:43:45.700Z,26.13
2023-07-25T04:48:48.570Z,25.99
2023-07-25T04:53:52.324Z,25.94
2023-07-25T04:58:56.518Z,25.61
2023-07-25T05:03:59.689Z,25.82
2023-07-25T05:09:02.730Z,25.52
2023-07-25T05:14:07.375Z,24.96
2023-07-25T05:19:10.956Z,24.86
2023-07-25T05:24:13.981Z,24.70
2023-07-25T05:29:18.793Z,24.98
2023-07-25T05:34:21.706Z,24.91
2023-07-25T05:39:24.899Z,24.88
2023-07-25T05:44:29.124Z,25.08
2023-07-25T05:49:32.005Z,24.96
2023-07-25T05:54:34.797Z,24.90
2023-07-25T05:59:39.289Z,24.71
2023-07-25T06:04:44.162Z,24.85
2023-07-25T06:09:48.662Z,24.99
2023-07-25T06:14:55.366Z,25.00
2023-07-25T06:20:00.422Z,24.97
2023-07-25T06:25:07.577Z,24.95
2023-07-25T06:30:18.954Z,25.02
2023-07-25T06:35:28.316Z,24.96
2023-07-25T06:40:33.704Z,24.95
2023-07-25T06:45:39.417Z,24.92
2023-07-25T06:50:45.010Z,24.92
2023-07-25T06:55:50.180Z,24.95
2023-07-25T07:01:01.330Z,24.79
2023-07-25T07:06:06.978Z,24.79
2023-07-25T07:11:12.470Z,24.80
2023-07-25T07:16:18.281Z,24.94
2023-07-25T07:21:29.177Z,24.90
2023-07-25T07:26:38.885Z,24.91
2023-07-25T07:31:43.250Z,24.99
2023-07-25T07:36:47.748Z,24.93
2023-07-25T07:41:52.184Z,24.92
2023-07-25T07:46:59.604Z,24.73
2023-07-25T07:57:13.139Z,24.93
2023-07-25T08:02:17.835Z,24.96
2023-07-25T08:07:21.071Z,24.93
2023-07-25T08:12:24.606Z,24.94
2023-07-25T08:17:28.964Z,24.76
2023-07-25T08:22:31.939Z,24.81
2023-07-25T08:27:34.918Z,24.89
2023-07-25T08:32:40.166Z,24.90
2023-07-25T08:37:43.283Z,24.84
2023-07-25T08:42:48.775Z,24.86
2023-07-25T08:47:55.127Z,24.92
2023-07-25T08:53:02.337Z,24.93
2023-07-25T08:58:06.187Z,24.92
2023-07-25T09:03:11.125Z,24.90
2023-07-25T09:08:14.763Z,24.70
2023-07-25T09:13:21.819Z,24.86
2023-07-25T09:18:27.121Z,24.87
2023-07-25T09:23:30.744Z,24.79
2023-07-25T09:28:34.465Z,24.93
2023-07-25T09:33:40.208Z,25.03
2023-07-25T09:38:51.028Z,25.00
2023-07-25T09:43:54.772Z,25.01
2023-07-25T09:49:00.691Z,24.94
2023-07-25T09:54:07.591Z,24.87
2023-07-25T09:59:11.674Z,24.46
2023-07-25T10:04:18.774Z,24.29
2023-07-25T10:09:22.276Z,24.24
2023-07-25T10:14:26.041Z,24.22
2023-07-25T10:19:45.640Z,24.34
2023-07-25T10:24:49.423Z,24.39
2023-07-25T10:29:52.468Z,24.41
2023-07-25T10:35:05.393Z,24.68
2023-07-25T10:40:18.271Z,24.36
2023-07-25T10:45:42.761Z,24.19
2023-07-25T10:50:54.416Z,24.40
2023-07-25T10:56:19.823Z,24.48
2023-07-25T11:01:41.436Z,24.46
2023-07-25T11:06:48.047Z,24.43
2023-07-25T11:11:52.953Z,24.55
2023-07-25T11:16:56.423Z,24.31
2023-07-25T11:22:01.498Z,24.24
2023-07-25T11:27:05.080Z,24.13
2023-07-25T11:32:10.925Z,24.15
2023-07-25T11:37:15.773Z,24.22
2023-07-25T11:42:19.120Z,24.14
2023-07-25T11:47:22.688Z,24.23
2023-07-25T11:52:27.837Z,24.24
2023-07-25T11:57:31.448Z,24.12
2023-07-25T12:02:38.369Z,23.95
2023-07-25T12:07:53.720Z,24.03
2023-07-25T12:12:57.100Z,24.24
2023-07-25T12:18:04.112Z,24.15
2023-07-25T12:23:11.552Z,24.11
2023-07-25T12:28:14.873Z,24.07
2023-07-25T12:33:17.807Z,23.97
2023-07-25T12:38:22.356Z,23.85
2023-07-25T12:43:25.826Z,23.86
2023-07-25T12:48:28.843Z,23.82
2023-07-25T12:53:33.392Z,23.69
2023-07-25T12:58:36.757Z,23.71
2023-07-25T13:03:41.886Z,23.68
2023-07-25T13:08:47.438Z,23.64
2023-07-25T13:13:50.384Z,23.70
2023-07-25T13:18:53.289Z,23.60
2023-07-25T13:23:57.623Z,23.60
2023-07-25T13:29:00.916Z,23.52
2023-07-25T13:34:04.087Z,23.71
2023-07-25T13:39:09.041Z,23.67
2023-07-25T13:44:11.984Z,23.86
2023-07-25T13:49:15.088Z,23.73
2023-07-25T13:54:20.218Z,23.68
2023-07-25T13:59:23.233Z,23.80
2023-07-25T14:04:26.086Z,23.80
2023-07-25T14:09:30.366Z,23.70
2023-07-25T14:14:37.272Z,23.60
2023-07-25T14:19:40.470Z,23.85
2023-07-25T14:24:44.940Z,23.67
2023-07-25T14:29:48.212Z,23.67
2023-07-25T14:34:51.926Z,23.52
2023-07-25T14:39:56.133Z,23.50
2023-07-25T14:44:59.336Z,23.53
2023-07-25T14:50:02.327Z,23.65
2023-07-25T14:55:08.003Z,23.50
2023-07-25T15:00:16.856Z,23.40
2023-07-25T15:05:21.276Z,23.35
2023-07-25T15:10:25.878Z,23.50
2023-07-25T15:15:28.897Z,23.43
2023-07-25T15:20:31.833Z,23.34
2023-07-25T15:25:36.418Z,23.26
2023-07-25T15:30:39.336Z,23.37
2023-07-25T15:35:42.257Z,23.81
2023-07-25T15:40:46.635Z,24.15
2023-07-25T15:45:50.374Z,24.42
2023-07-25T15:50:53.152Z,24.60
2023-07-25T15:55:58.311Z,24.79
2023-07-25T16:01:02.372Z,24.94
2023-07-25T16:06:05.368Z,25.09
2023-07-25T16:11:09.771Z,25.26
2023-07-25T16:16:13.465Z,25.40
2023-07-25T16:21:17.060Z,25.55
2023-07-25T16:26:21.725Z,25.69
2023-07-25T16:31:32.470Z,25.81
2023-07-25T16:36:36.756Z,25.95
2023-07-25T16:41:41.303Z,26.06
2023-07-25T16:46:46.621Z,26.16
2023-07-25T16:51:53.160Z,26.24
2023-07-25T16:56:57.873Z,26.36
2023-07-25T17:02:00.893Z,26.49
2023-07-25T17:07:03.973Z,26.56
2023-07-25T17:12:08.826Z,26.64
2023-07-25T17:17:13.718Z,26.74
2023-07-25T17:22:17.089Z,26.84
2023-07-25T17:27:21.391Z,26.81
2023-07-25T17:32:27.017Z,27.00
2023-07-25T17:37:30.243Z,27.07
2023-07-25T17:42:34.652Z,27.15
2023-07-25T17:47:38.106Z,27.24
2023-07-25T17:52:41.240Z,27.30
2023-07-25T17:57:45.590Z,27.34
2023-07-25T18:02:48.583Z,27.41
2023-07-25T18:07:51.544Z,27.47
2023-07-25T18:12:55.732Z,27.56
2023-07-25T18:17:58.734Z,27.60
2023-07-25T18:23:02.168Z,27.65
2023-07-25T18:28:07.255Z,27.73
2023-07-25T18:33:10.544Z,27.80
2023-07-25T18:38:16.239Z,27.84
2023-07-25T18:43:26.141Z,27.89
2023-07-25T18:48:29.380Z,27.94
2023-07-25T18:53:32.611Z,28.01
2023-07-25T18:58:37.086Z,28.03
2023-07-25T19:03:39.988Z,28.05
2023-07-25T19:08:43.280Z,28.06
2023-07-25T19:13:47.677Z,28.10
2023-07-25T19:18:50.613Z,28.15
2023-07-25T19:23:53.533Z,28.20
2023-07-25T19:29:01.092Z,28.22
2023-07-25T19:34:05.682Z,28.30
2023-07-25T19:39:08.776Z,28.31
2023-07-25T19:44:14.664Z,28.37
2023-07-25T19:49:17.452Z,28.38
2023-07-25T19:54:20.413Z,28.37
2023-07-25T19:59:24.675Z,28.40
2023-07-25T20:04:27.590Z,28.37
2023-07-25T20:09:30.486Z,28.35
2023-07-25T20:14:35.041Z,28.35
2023-07-25T20:19:37.932Z,28.37
2023-07-25T20:24:41.743Z,28.31
2023-07-25T20:29:46.262Z,28.28
2023-07-25T20:34:49.436Z,28.31
2023-07-25T20:39:52.751Z,28.26
2023-07-25T20:44:57.111Z,28.26
2023-07-25T20:50:00.192Z,28.21
2023-07-25T20:55:03.752Z,28.20
2023-07-25T21:00:11.353Z,28.17
2023-07-25T21:05:15.380Z,28.19
2023-07-25T21:10:18.555Z,28.17
2023-07-25T21:15:22.843Z,28.19
2023-07-25T21:20:25.655Z,28.26
2023-07-25T21:25:28.571Z,28.31
2023-07-25T21:30:32.985Z,28.35
2023-07-25T21:35:36.504Z,28.45
2023-07-25T21:40:39.549Z,28.51
2023-07-25T21:45:44.454Z,28.58
2023-07-25T21:50:49.746Z,28.55
2023-07-25T21:55:52.636Z,28.55
2023-07-25T22:00:59.818Z,28.60
2023-07-25T22:06:03.685Z,28.60
2023-07-25T22:11:06.683Z,28.60
2023-07-25T22:16:10.926Z,28.63
2023-07-25T22:21:13.837Z,28.68
2023-07-25T22:26:16.690Z,28.63
2023-07-25T22:31:20.914Z,28.56
2023-07-25T22:36:23.993Z,28.57
2023-07-25T22:41:26.922Z,28.52
2023-07-25T22:46:31.548Z,28.51
2023-07-25T22:51:34.507Z,28.46
2023-07-25T22:56:37.431Z,28.43
2023-07-25T23:01:41.991Z,28.36
2023-07-25T23:06:44.845Z,28.30
2023-07-25T23:11:47.946Z,28.24
2023-07-25T23:16:52.202Z,28.20
2023-07-25T23:21:55.045Z,28.20
2023-07-25T23:26:57.871Z,28.13
2023-07-25T23:32:02.144Z,28.11
2023-07-25T23:37:05.289Z,28.10
2023-07-25T23:42:08.801Z,28.07
2023-07-25T23:47:13.544Z,28.06
2023-07-25T23:52:16.308Z,28.02
2023-07-25T23:57:19.081Z,27.98
